Terminal Aerodrome Forecast
Issued by NWS Melbourne, FL

Home | Current Version | Previous Version | Text Only | Print | Product List | Glossary On
Versions: 1 2 3 4 5 6 7 8 9 10 11 12 13 14 15 16
639
FTUS42 KMLB 172342
TAFVRB
TAF
KVRB 172342Z 1800/1824 VRB04KT P6SM FEW035 SCT250
     FM181400 14007KT P6SM SCT025
     FM181700 12010KT P6SM SCT040
     FM182000 11010KT P6SM VCTS SCT035CB=

USA.gov is the U.S. government's official web portal to all federal, state and local government web resources and services.